Sunday, October 21, 2018, 1:23 PM EDT
Back to Local

KABE, Lehigh Valley International Airport

Location: Allentown, PA, United States Lat: 40.65
Local Time: 1:23 PM EDT (17:23 GMT) Lon: -75.45
Time Zone: US/Eastern Elev: 393 ft

Show me the last for .
Show Decoded

2018-10-21 12:51 METAR KABE 211651Z 34013G20KT 10SM BKN044 07/M02 A3004 RMK AO2 PK WND 33026/1615
                 SLP174 T00721022 =
2018-10-21 11:51 METAR KABE 211551Z 33014G24KT 10SM OVC047 07/M03 A3003 RMK AO2 PK WND 32029/1455
                 SLP170 T00721028 $ =
2018-10-21 10:51 METAR KABE 211451Z 31017G22KT 10SM OVC042 07/M02 A3002 RMK AO2 PK WND 31026/1415
                 SLP168 T00671022 51034 $ =
2018-10-21 09:51 METAR KABE 211351Z 34021G30KT 10SM OVC050 07/M03 A2999 RMK AO2 PK WND 33030/1342
                 SLP157 T00721028 $ =
2018-10-21 08:51 METAR KABE 211251Z 32008G23KT 10SM BKN041 OVC050 07/00 A2997 RMK AO2 SLP149
                 T00670000 $ =
2018-10-21 08:21 METAR KABE 211221Z 32007KT 10SM FEW033 SCT050 BKN060 07/02 A2994 RMK AO2
                 T00670017 $ =
2018-10-21 08:04 METAR KABE 211204Z 33009KT 10SM SCT015 SCT022 BKN027 06/02 A2993 RMK AO2
                 T00610017 $ =
2018-10-21 07:51 METAR KABE 211151Z 34010G18KT 10SM 06/02 A2992 RMK AO2 RAB33E42 SLP133 P0000
                 60000 70006 T00610017 10089 20061 $ =
2018-10-21 07:34 METAR KABE 211134Z 33012G25KT -RA RMK AO2 RAB33 P0000 $ =
2018-10-21 06:51 METAR KABE 211051Z 31015G25KT 10SM -RA SCT032 BKN047 BKN070 08/03 A2985 RMK AO2
                 RAB41 PRESRR SLP110 P0000 T00780028 $ =
2018-10-21 05:51 METAR KABE 210951Z 31008KT 10SM OVC080 08/03 A2979 RMK AO2 SLP089 T00830028 $ =
2018-10-21 04:51 METAR KABE 210851Z 31009KT 10SM FEW060 FEW080 08/03 A2974 RMK AO2 SLP072
                 T00780028 53021 $ =
2018-10-21 03:51 METAR KABE 210751Z 30005KT 10SM OVC048 08/03 A2971 RMK AO2 SLP062 T00780033 $ =
2018-10-21 02:51 METAR KABE 210651Z 32007KT 10SM SCT021 BKN037 08/04 A2968 RMK AO2 SLP052
                 T00830039 $ =
2018-10-21 02:26 METAR KABE 210626Z 30008KT 10SM SCT021 BKN026 OVC032 09/04 A2969 RMK AO2
                 T00890044 $ =
2018-10-21 01:51 METAR KABE 210551Z AUTO 28006KT 10SM OVC032 09/05 A2968 RMK AO2 SLP051 60006
                 T00890050 10117 20083 55000 $ =
2018-10-21 00:51 METAR KABE 210451Z AUTO 25008KT 10SM FEW026 BKN035 09/05 A2967 RMK AO2 SLP047
                 T00890050 401780083 $ =
2018-10-21 00:20 METAR KABE 210420Z 26004KT 10SM BKN029 BKN120 09/05 A2967 RMK AO2 T00890050 $ =
2018-10-20 23:51 METAR KABE 210351Z 25004KT 10SM FEW070 BKN100 OVC120 09/05 A2967 RMK AO2 RAE17
                 SLP046 P0000 T00890050 $ =
2018-10-20 22:51 METAR KABE 210251Z 27009KT 10SM -RA SCT045 BKN060 OVC075 09/06 A2968 RMK AO2
                 RAB12 SLP051 P0001 60006 T00890056 53021 $ =
2018-10-20 21:51 METAR KABE 210151Z 34004KT 10SM FEW041 SCT070 OVC080 10/06 A2964 RMK AO2
                 RAB23E43 SLP037 P0005 T01000061 $ =
2018-10-20 20:51 METAR KABE 210051Z 00000KT 10SM FEW070 FEW100 11/05 A2962 RMK AO2 SLP032
                 T01060050 $ =
2018-10-20 19:51 METAR KABE 202351Z 24004KT 10SM FEW110 11/04 A2962 RMK AO2 SLP030 T01110044
                 10178 20100 55001 $ =
2018-10-20 18:51 METAR KABE 202251Z 27004KT 10SM CLR 13/04 A2961 RMK AO2 SLP028 T01280039 $ =
2018-10-20 17:51 METAR KABE 202151Z 26007KT 10SM CLR 15/05 A2961 RMK AO2 SLP028 T01500050 $ =
2018-10-20 16:51 METAR KABE 202051Z 27009G16KT 10SM CLR 17/04 A2962 RMK AO2 SLP029 T01670044
                 56021 $ =
2018-10-20 15:51 METAR KABE 201951Z 26015G22KT 10SM FEW055 SCT070 17/05 A2964 RMK AO2 SLP035
                 T01720050 $ =
2018-10-20 14:51 METAR KABE 201851Z AUTO 26011G20KT 10SM BKN075 17/07 A2966 RMK AO2 SLP042
                 T01720067 $ =
2018-10-20 13:51 METAR KABE 201751Z 25018G25KT 10SM BKN039 17/07 A2968 RMK AO2 SLP051 T01670072
                 10172 20122 58025 $ =

Support USWX by starting your Amazon purchase here.